MDT,Max TemperatureF,Mean TemperatureF,Min TemperatureF,Max Dew PointF,MeanDew PointF,Min DewpointF,Max Humidity, Mean Humidity, Min Humidity, Max Sea Level PressureIn, Mean Sea Level PressureIn, Min Sea Level PressureIn, Max VisibilityMiles, Mean VisibilityMiles, Min VisibilityMiles, Max Wind SpeedMPH, Mean Wind SpeedMPH, Max Gust SpeedMPH,PrecipitationIn, CloudCover, Events, WindDirDegrees
2012-10-1,66,54,43,40,37,33,68,51,34,30.14,30.07,30.01,10,10,10,25,9,33,0.00,1,,33
2012-10-2,77,57,39,37,32,22,82,43,18,30.08,29.93,29.80,10,10,10,13,6,20,0.00,0,,213
2012-10-3,82,66,51,27,20,9,39,20,7,29.86,29.80,29.73,10,10,10,22,8,30,0.00,0,,326
2012-10-4,66,50,37,33,31,21,70,48,24,30.15,30.05,29.87,10,10,10,28,12,33,0.00,0,,150
2012-10-5,75,56,37,38,30,20,89,50,14,30.05,29.96,29.82,10,10,10,28,13,36,0.00,1,,193
2012-10-6,45,38,33,38,36,31,100,97,79,30.26,30.14,29.95,10,3,0,24,13,30,0.00,8,Fog-Rain-Snow,141
2012-10-7,51,39,30,34,31,27,100,85,52,30.26,30.16,30.02,10,8,1,23,12,28,0.00,6,,179
2012-10-8,73,48,24,27,17,6,96,37,10,30.09,29.97,29.83,10,10,10,24,9,37,0.00,0,,250
2012-10-9,77,59,41,31,22,12,67,26,9,30.08,29.87,29.76,10,10,10,18,10,33,0.00,0,,271
2012-10-10,69,51,33,36,33,30,89,60,29,30.16,30.06,29.95,10,10,10,26,11,33,0.00,0,,181
2012-10-11,75,60,45,43,33,29,63,42,21,30.02,29.96,29.90,10,10,10,23,12,31,0.00,1,,183
2012-10-12,57,50,46,54,48,35,100,86,59,30.31,30.07,29.85,10,8,1,32,12,46,0.30,6,Rain-Thunderstorm,177
2012-10-13,57,48,39,32,27,25,70,46,29,30.09,29.92,29.83,10,10,10,37,12,48,0.00,0,,301
2012-10-14,66,52,37,33,30,27,76,49,25,30.25,30.15,30.07,10,10,10,18,8,36,0.00,0,,192
2012-10-15,77,58,41,32,24,16,65,33,11,30.10,29.94,29.78,10,10,10,13,5,,0.00,0,,323
2012-10-16,78,62,46,26,19,11,42,21,8,29.87,29.69,29.52,10,10,10,23,12,26,0.00,0,,276
2012-10-17,73,58,43,30,9,-10,32,16,4,29.80,29.64,29.52,10,10,10,31,16,41,0.00,0,,289
2012-10-18,66,48,33,22,17,8,50,31,16,30.00,29.92,29.79,10,10,10,22,9,26,0.00,0,,153
2012-10-19,78,54,30,22,15,2,61,27,8,30.05,29.90,29.75,10,10,10,21,7,29,0.00,0,,264
2012-10-20,79,62,45,16,9,-2,22,14,6,29.83,29.70,29.57,10,10,10,20,7,24,0.00,0,,210
2012-10-21,73,59,45,30,25,17,44,29,14,29.81,29.70,29.62,10,10,10,28,9,36,0.00,0,,227
2012-10-22,71,54,37,28,25,18,57,33,13,29.84,29.77,29.72,10,10,10,29,8,36,0.00,0,,239
2012-10-23,73,62,51,28,20,10,41,22,9,29.78,29.73,29.68,10,10,10,31,15,43,0.00,0,,221
2012-10-24,73,64,55,28,22,15,31,22,13,29.73,29.63,29.53,10,10,10,33,20,45,0.00,0,,235
2012-10-25,52,42,32,28,19,11,69,45,19,30.15,29.90,29.62,10,10,10,25,13,31,0.00,1,,130
2012-10-26,44,34,25,24,22,17,88,67,43,30.36,30.27,30.16,10,10,10,20,10,24,0.00,5,,173
2012-10-27,57,39,21,20,16,10,82,48,17,30.23,30.10,29.95,10,10,10,25,15,33,0.00,0,,161
2012-10-28,66,45,26,20,17,13,58,38,16,30.16,30.06,29.95,10,10,10,17,7,,0.00,0,,165
2012-10-29,69,52,37,23,18,14,47,27,13,30.10,30.00,29.93,10,10,10,13,6,17,0.00,0,,334
2012-10-30,69,52,37,21,18,13,41,29,15,30.08,30.00,29.93,10,10,10,15,9,21,0.00,0,,8
2012-10-31,68,51,34,20,15,12,48,29,13,30.14,30.05,29.98,10,10,10,14,8,,0.00,0,,58